Алматы

Карта отелей и гостиниц, располагающихся рядом с аэропортом Алматы :

Алматы Алматинская область 43° 21' 31.32" N, 77° 2' 53.0412" E
Алматы Алматинская область 43° 21' 31.32" N, 77° 2' 53.0412" E
Код аэродрома ИКАО
UAAA
Код аэродрома RU
УААА
Координаты
N43.35870° E077.04807°
Превышение над уровнем моря
681
Основная полоса
05L/23R
Курс магнитный
050,9/230,9
Длина основной ВПП
4510
Ширина основной ВПП
60
Покрытие основной ВПП
Твёрдое (железобетон)
Освещение ВПП
Постоянное
Тип: 
Аэродром
Класс аэродрома: 
Международный
Принадлежность: 
ГА
Статус: 
Действующий
Сайт: 
alaport.com
E-mail аэродрома: 
Страна: 
Казахстан
Регион: 
Алматинская область
Город: 
Дополнительная информация: 
Существует с 1935 г. Горный. Оператор: АО «Международный Аэропорт Алматы». Совместного базирования.

Найти трансфер

С помощью этой формы Вы можете найти трансфер из аэропорта Алматы в город, аэропорт или вокзал:

Карта места

Javascript is required to view this map.

Погода в аэропортах:

Авиационная погода в Самаре

Регион: 
Погода METAR: 
UWWW 271500Z 31007MPS 0900 0800SE R15/2000 +SN VV005 M01/M02 Q0997 R15/550235 NOSIG RMK QFE736/0982
Время наблюдения
2021-02-27T15:00:00Z
Температура C
-1.0
Точка росы
-2.0
Направление ветра
310
Скорость ветра (узлы)
14
Метео видимость
0.56
Явления погоды
+SN
Условия полета
LIFR
Аэропорт подробнее: 

Авиационная погода в Ботсфьорде

Регион: 
Погода METAR: 
ENBS 262050Z 34022KT 9999 DRSN BKN018 M01/M04 Q1006
Время наблюдения
2021-02-26T20:50:00Z
Температура C
-1.0
Точка росы
-4.0
Направление ветра
340
Скорость ветра (узлы)
22
Метео видимость
6.21
Явления погоды
DRSN
Условия полета
MVFR

Авиационная погода в Гостомеле

Регион: 
Погода METAR: 
UKKM 271500Z AUTO 35002MPS 6000 -RA BKN008/// 03/02 Q1017
Время наблюдения
2021-02-27T15:00:00Z
Температура C
3.0
Точка росы
2.0
Направление ветра
350
Скорость ветра (узлы)
4
Метео видимость
3.73
Явления погоды
-RA
Условия полета
IFR
Аэропорт подробнее: 

Авиационная погода в Черновцах

Регион: 
Погода METAR: 
UKLN 270835Z 30006G11MPS 250V340 9999 -SHRA BKN013 BKN///CB 03/03 Q1023 R33/290360 NOSIG
Время наблюдения
2021-02-27T08:35:00Z
Температура C
3.0
Точка росы
3.0
Направление ветра
300
Скорость ветра (узлы)
12
Метео видимость
6.21
Явления погоды
-SHRA
Условия полета
MVFR
Аэропорт подробнее: